Terminal Aerodrome Forecast
Issued by NWS

Home | Current Version | Previous Version | Text Only | Print | Product List | Glossary On
Versions: 1 2 3 4 5 6 7 8 9 10 11 12 13 14 15 16 17 18 19 20 21 22 23 24 25 26 27 28 29 30 31 32 33 34 35 36 37 38 39 40 41 42 43 44 45 46 47 48 49 50
997
FTUS41 KRNK 172144 AAE
TAFBCB
TAF AMD
KBCB 172144Z 1722/1818 23005KT P6SM -RA SCT012 OVC035
      TEMPO 1722/1724 4SM -RA OVC012
     FM180200 24006KT P6SM -RA SCT007 OVC015
     FM180800 28007KT 4SM BR OVC015
     FM181000 29009KT P6SM BKN020
     FM181200 29011G20KT P6SM -DZ BKN025
     FM181500 30013G26KT P6SM BKN035
     FM181600 30012G24KT P6SM BKN060=

USA.gov is the U.S. government's official web portal to all federal, state and local government web resources and services.